Time;durP1;ratioP1;P1;durP2;ratioP2;P2;SDS_P1;SDS_P2;PMS_P1;PMS_P2;Temp;Humidity;BMP_temperature;BMP_pressure;BME280_temperature;BME280_humidity;BME280_pressure;Samples;Min_cycle;Max_cycle;Signal;HPM_P1;HPM_P2
2022/06/16 00:00:33;;;;;;;12.45;8.65;;;;;;;12.23;71.12;100643.20;1647559;87;26426;-67
2022/06/16 00:03:03;;;;;;;11.95;8.30;;;;;;;12.19;71.21;100642.23;1647386;86;25810;-67
2022/06/16 00:05:36;;;;;;;11.10;7.45;;;;;;;12.15;71.30;100639.88;1647480;87;28419;-68
2022/06/16 00:08:06;;;;;;;8.73;7.30;;;;;;;12.13;70.80;100638.84;1647440;87;25801;-67
2022/06/16 00:10:33;;;;;;;10.80;7.75;;;;;;;12.11;70.60;100642.42;1646767;86;25642;-68
2022/06/16 00:13:00;;;;;;;8.75;7.28;;;;;;;12.09;70.56;100645.21;1646578;86;25607;-67
2022/06/16 00:15:27;;;;;;;14.98;7.58;;;;;;;12.06;70.43;100649.89;1646446;86;25465;-67
2022/06/16 00:17:56;;;;;;;11.65;7.83;;;;;;;12.01;70.59;100643.24;1646506;87;27508;-68
2022/06/16 00:20:23;;;;;;;10.20;7.50;;;;;;;11.94;70.59;100639.05;1646381;86;25700;-68
2022/06/16 00:22:49;;;;;;;9.03;8.13;;;;;;;11.90;70.44;100638.05;1646509;87;25464;-68
2022/06/16 00:25:16;;;;;;;9.60;7.67;;;;;;;11.87;70.93;100640.02;1646479;86;26298;-68
2022/06/16 00:27:43;;;;;;;12.90;7.85;;;;;;;11.84;71.22;100640.63;1646564;86;25528;-68
2022/06/16 00:30:11;;;;;;;10.45;8.63;;;;;;;11.79;71.01;100646.17;1646486;86;28302;-68
2022/06/16 00:32:41;;;;;;;8.80;7.90;;;;;;;11.73;71.08;100646.04;1646407;86;25749;-68
2022/06/16 00:35:08;;;;;;;;;;;;;;;11.69;70.95;100643.71;1649010;86;25490;-68
2022/06/16 00:37:34;;;;;;;11.50;8.30;;;;;;;11.64;71.06;100637.06;1646440;87;25591;-68
2022/06/16 00:40:00;;;;;;;11.35;8.85;;;;;;;11.59;71.07;100639.33;1646534;86;25504;-67
2022/06/16 00:42:26;;;;;;;11.40;8.45;;;;;;;11.55;71.27;100637.78;1646451;86;27503;-68
2022/06/16 00:44:57;;;;;;;14.47;8.68;;;;;;;11.52;71.29;100645.17;1646434;87;25658;-69
2022/06/16 00:47:28;;;;;;;11.50;8.60;;;;;;;11.49;71.69;100645.80;1646479;86;25613;-69
2022/06/16 00:49:59;;;;;;;10.38;8.88;;;;;;;11.44;71.51;100641.86;1646467;87;25717;-68
2022/06/16 00:52:31;;;;;;;9.98;8.40;;;;;;;11.39;71.52;100636.53;1646395;86;25684;-67
2022/06/16 00:55:09;;;;;;;14.10;8.73;;;;;;;11.35;71.27;100639.05;1646474;87;27511;-67
2022/06/16 00:57:46;;;;;;;14.35;8.68;;;;;;;11.31;71.39;100629.16;1646371;86;25436;-67
2022/06/16 01:02:46;;;;;;;11.65;8.65;;;;;;;11.23;72.02;100625.25;1646476;86;25686;-67
2022/06/16 01:05:13;;;;;;;12.68;8.90;;;;;;;11.18;72.05;100622.09;1646454;86;25491;-67
2022/06/16 01:07:42;;;;;;;10.60;9.10;;;;;;;11.15;72.51;100620.02;1646465;87;27549;-67
2022/06/16 01:10:09;;;;;;;;;;;;;;;11.13;72.31;100622.20;1648822;87;25909;-68
2022/06/16 01:16:18;;;;;;;13.53;9.15;;;;;;;11.09;72.78;100625.84;1646447;87;25775;-69
2022/06/16 01:19:35;;;;;;;12.78;9.50;;;;;;;11.04;72.49;100618.63;1646335;87;25696;-68
2022/06/16 01:22:07;;;;;;;13.35;9.58;;;;;;;11.00;72.43;100619.80;1646485;87;27762;-68
2022/06/16 01:24:56;;;;;;;11.22;9.85;;;;;;;10.96;72.33;100615.28;1644649;86;25665;-68
2022/06/16 01:27:43;;;;;;;15.10;10.95;;;;;;;10.93;72.93;100611.82;1646559;87;25450;-67
2022/06/16 01:30:16;;;;;;;13.68;9.28;;;;;;;10.89;72.90;100618.40;1645535;85;25661;-68
2022/06/16 01:33:11;;;;;;;11.30;9.33;;;;;;;10.88;73.06;100613.28;1645957;86;25667;-67
2022/06/16 01:36:13;;;;;;;14.30;9.90;;;;;;;10.90;73.73;100612.45;1646497;87;28266;-68
2022/06/16 01:38:59;;;;;;;14.60;10.68;;;;;;;10.91;73.54;100606.71;1646637;86;25624;-69
2022/06/16 01:41:39;;;;;;;13.53;9.90;;;;;;;10.90;73.36;100610.54;1645554;87;25617;-67
2022/06/16 01:44:26;;;;;;;13.05;9.98;;;;;;;10.88;73.54;100604.63;1646814;86;25768;-66
2022/06/16 01:46:57;;;;;;;13.60;10.58;;;;;;;10.88;73.52;100602.45;1646975;87;25677;-67
2022/06/16 01:49:27;;;;;;;13.70;10.20;;;;;;;10.87;73.73;100610.34;1646947;86;27520;-67
2022/06/16 01:52:02;;;;;;;13.75;9.93;;;;;;;10.84;73.90;100603.63;1646815;87;25616;-66
2022/06/16 01:54:36;;;;;;;15.18;10.70;;;;;;;10.86;73.98;100604.67;1646645;86;25636;-68
2022/06/16 01:57:14;;;;;;;14.87;11.03;;;;;;;10.85;73.94;100607.94;1646809;86;25613;-69
2022/06/16 01:59:47;;;;;;;12.03;10.78;;;;;;;10.85;73.77;100610.64;1646765;86;25597;-68
2022/06/16 02:02:18;;;;;;;15.20;10.88;;;;;;;10.87;74.12;100614.41;1646581;86;28600;-68
2022/06/16 02:04:53;;;;;;;16.85;11.53;;;;;;;10.87;74.15;100607.08;1646749;87;25673;-68
2022/06/16 02:07:25;;;;;;;15.35;11.73;;;;;;;10.88;74.24;100605.16;1645594;86;25608;-68
2022/06/16 02:09:54;;;;;;;14.60;11.55;;;;;;;;;;1646655;87;25495;-67
2022/06/16 02:15:22;;;;;;;15.35;12.10;;;;;;;10.87;74.57;100608.99;1646692;87;27600;-68
2022/06/16 02:17:48;;;;;;;13.10;10.58;;;;;;;10.85;74.38;100607.94;1615114;87;25541;-68
2022/06/16 02:20:15;;;;;;;15.75;12.30;;;;;;;10.85;74.26;100601.17;1615310;88;25602;-68
2022/06/16 02:22:41;;;;;;;15.58;11.73;;;;;;;10.83;74.75;100604.19;1615240;88;25570;-68
2022/06/16 02:25:08;;;;;;;14.98;10.80;;;;;;;10.84;74.89;100611.20;1615303;88;25482;-69
2022/06/16 02:27:35;;;;;;;14.30;10.72;;;;;;;10.84;74.95;100609.03;1615377;88;27537;-68
2022/06/16 02:30:01;;;;;;;16.45;11.63;;;;;;;10.84;74.90;100608.50;1615219;88;25506;-67
2022/06/16 02:32:51;;;;;;;15.50;12.95;;;;;;;10.83;74.76;100608.80;1615336;88;25549;-67
2022/06/16 02:35:32;;;;;;;18.45;11.78;;;;;;;10.81;75.25;100613.16;1615287;88;25589;-69
2022/06/16 02:38:24;;;;;;;13.95;11.90;;;;;;;10.80;75.42;100617.52;1615346;88;25758;-68
2022/06/16 02:41:23;;;;;;;14.33;11.48;;;;;;;10.79;75.35;100618.05;1615221;88;27455;-67
2022/06/16 02:44:06;;;;;;;14.45;12.03;;;;;;;10.78;74.99;100623.79;1615388;88;25939;-67
2022/06/16 02:46:44;;;;;;;17.30;12.25;;;;;;;10.76;75.20;100617.85;1615346;88;25551;-67
2022/06/16 02:49:28;;;;;;;18.92;14.23;;;;;;;10.76;75.39;100621.38;1615237;88;27885;-68
2022/06/16 02:52:11;;;;;;;22.48;13.98;;;;;;;10.76;76.13;100624.62;1615247;88;25654;-67
2022/06/16 02:54:45;;;;;;;18.92;12.78;;;;;;;10.77;76.56;100624.32;1622205;87;27670;-67
2022/06/16 02:57:20;;;;;;;17.40;11.93;;;;;;;10.78;76.61;100623.79;1645518;86;25624;-68
2022/06/16 02:59:59;;;;;;;19.37;13.62;;;;;;;10.77;76.34;100625.67;1646779;86;25653;-67
2022/06/16 03:02:27;;;;;;;20.27;14.98;;;;;;;10.80;76.80;100622.93;1644018;87;25563;-68
2022/06/16 03:04:57;;;;;;;17.42;13.32;;;;;;;10.81;77.29;100619.92;1646768;87;25434;-68
2022/06/16 03:07:25;;;;;;;14.75;13.10;;;;;;;10.83;77.19;100620.42;1646803;87;27665;-68
2022/06/16 03:09:51;;;;;;;13.72;12.18;;;;;;;10.88;77.11;100623.58;1646680;87;25475;-69
2022/06/16 03:12:18;;;;;;;17.07;13.45;;;;;;;10.90;77.27;100617.87;1646764;87;25445;-68
2022/06/16 03:14:45;;;;;;;21.52;12.78;;;;;;;10.94;77.21;100618.29;1646820;87;25519;-68
2022/06/16 03:17:13;;;;;;;19.07;14.00;;;;;;;10.96;77.27;100617.42;1646804;87;25568;-67
2022/06/16 03:19:39;;;;;;;14.28;12.80;;;;;;;10.98;77.65;100617.13;1646695;86;27485;-67
2022/06/16 03:22:06;;;;;;;19.25;14.68;;;;;;;11.00;77.54;100623.85;1646644;86;25520;-69
2022/06/16 03:24:33;;;;;;;18.12;13.95;;;;;;;11.04;77.85;100619.98;1646766;86;25629;-67
2022/06/16 03:27:00;;;;;;;21.20;14.45;;;;;;;11.09;78.05;100627.99;1646673;86;25645;-68
2022/06/16 03:29:26;;;;;;;21.27;14.40;;;;;;;11.12;78.27;100631.45;1646773;86;25669;-68
2022/06/16 03:31:53;;;;;;;18.45;14.40;;;;;;;11.18;78.54;100630.78;1646733;86;27751;-68
2022/06/16 03:34:19;;;;;;;17.62;14.65;;;;;;;11.23;78.97;100633.37;1646638;86;25807;-68
2022/06/16 03:36:45;;;;;;;15.58;13.90;;;;;;;11.27;79.04;100625.44;1646655;87;25476;-67
2022/06/16 03:39:12;;;;;;;22.22;15.28;;;;;;;11.33;79.10;100632.35;1646723;87;25631;-67
2022/06/16 03:41:38;;;;;;;20.10;15.05;;;;;;;11.40;79.55;100625.95;1645667;86;25833;-68
2022/06/16 03:44:04;;;;;;;21.87;14.68;;;;;;;11.49;79.82;100624.67;1647117;87;28465;-68
2022/06/16 03:46:32;;;;;;;18.90;13.93;;;;;;;11.55;79.71;100624.24;1650433;87;25914;-68
2022/06/16 03:48:59;;;;;;;19.00;14.47;;;;;;;11.64;79.83;100618.88;1650518;87;25494;-69
2022/06/16 03:51:25;;;;;;;17.30;14.40;;;;;;;11.72;79.90;100618.71;1674535;85;25444;-68
2022/06/16 03:53:51;;;;;;;21.37;14.28;;;;;;;11.81;79.93;100619.56;1674523;85;25460;-68
2022/06/16 03:56:18;;;;;;;17.70;14.35;;;;;;;11.89;80.06;100616.67;1674592;85;27282;-68
2022/06/16 03:58:44;;;;;;;16.10;13.00;;;;;;;11.96;80.07;100615.14;1674467;85;25723;-68
2022/06/16 04:01:11;;;;;;;18.77;15.03;;;;;;;12.06;80.20;100614.65;1674513;85;29726;-68
2022/06/16 04:06:21;;;;;;;15.00;12.53;;;;;;;12.23;80.03;100611.22;1674630;85;25428;-69
2022/06/16 04:08:49;;;;;;;17.90;13.35;;;;;;;12.33;80.07;100609.59;1674556;85;27309;-69
2022/06/16 04:11:27;;;;;;;15.10;13.05;;;;;;;12.41;80.04;100606.13;1674434;85;25666;-69
2022/06/16 04:14:07;;;;;;;13.58;11.75;;;;;;;12.47;79.95;100598.63;1674593;85;25507;-67
2022/06/16 04:16:35;;;;;;;15.93;11.97;;;;;;;12.55;79.97;100604.64;1674484;85;26253;-68
2022/06/16 04:19:02;;;;;;;15.70;12.50;;;;;;;12.63;79.96;100603.06;1674547;85;25423;-68
2022/06/16 04:21:29;;;;;;;15.45;12.58;;;;;;;12.69;79.99;100600.45;1674531;85;27571;-68
2022/06/16 04:23:56;;;;;;;17.55;12.43;;;;;;;12.76;79.75;100606.21;1674471;85;25652;-68
2022/06/16 04:26:23;;;;;;;15.43;12.25;;;;;;;12.82;79.69;100607.67;1674557;85;25484;-68
2022/06/16 04:28:50;;;;;;;15.10;12.03;;;;;;;12.89;79.69;100607.21;1674613;85;25579;-68
2022/06/16 04:31:16;;;;;;;14.73;12.18;;;;;;;12.97;79.61;100609.68;1674663;85;25675;-68
2022/06/16 04:33:42;;;;;;;17.98;11.45;;;;;;;13.05;79.65;100604.83;1674614;85;28314;-68
2022/06/16 04:36:09;;;;;;;14.10;10.70;;;;;;;13.14;79.68;100606.19;1674496;85;25777;-69
2022/06/16 04:38:35;;;;;;;14.95;10.90;;;;;;;13.19;79.39;100604.67;1674495;85;25453;-68
2022/06/16 04:41:02;;;;;;;12.35;11.00;;;;;;;13.22;79.06;100599.97;1674471;85;26257;-69
2022/06/16 04:43:30;;;;;;;14.55;10.85;;;;;;;13.25;78.91;100602.05;1674523;85;25489;-69
2022/06/16 04:45:58;;;;;;;12.70;10.95;;;;;;;13.32;79.10;100601.04;1674487;85;27510;-69
2022/06/16 04:48:26;;;;;;;15.23;11.43;;;;;;;13.40;79.15;100598.06;1674644;85;25726;-69
2022/06/16 04:50:52;;;;;;;15.35;11.50;;;;;;;13.47;78.99;100596.23;1674513;85;25608;-69
2022/06/16 04:53:20;;;;;;;14.25;11.48;;;;;;;13.51;78.98;100595.27;1674474;85;25657;-69
2022/06/16 04:55:52;;;;;;;17.67;10.35;;;;;;;13.60;79.05;100602.05;1674514;85;25495;-69
2022/06/16 04:58:18;;;;;;;13.53;9.90;;;;;;;13.67;78.76;100598.28;1674586;85;28194;-67
2022/06/16 05:00:49;;;;;;;13.18;10.55;;;;;;;13.73;78.26;100597.58;1674431;85;25882;-68
2022/06/16 05:03:18;;;;;;;15.00;9.33;;;;;;;13.78;78.33;100596.83;1674100;84;25394;-68
2022/06/16 05:05:46;;;;;;;;;;;;;;;13.88;78.15;100595.70;1676985;85;25795;-68
2022/06/16 05:08:14;;;;;;;12.40;8.15;;;;;;;13.98;78.16;100594.56;1674557;85;25434;-68
2022/06/16 05:10:40;;;;;;;9.65;8.50;;;;;;;14.06;77.80;100591.56;1674508;85;27392;-68
2022/06/16 05:13:07;;;;;;;12.45;8.23;;;;;;;14.17;77.75;100591.45;1674411;85;25480;-68
2022/06/16 05:15:34;;;;;;;11.03;7.80;;;;;;;14.28;77.46;100587.80;1674509;85;25517;-69
2022/06/16 05:18:02;;;;;;;10.32;8.05;;;;;;;14.41;77.16;100590.09;1674515;85;25634;-70
2022/06/16 05:20:29;;;;;;;11.30;8.08;;;;;;;14.53;77.32;100588.24;1674518;85;25423;-70
2022/06/16 05:22:55;;;;;;;11.75;8.53;;;;;;;14.66;76.96;100582.38;1674480;85;28344;-70
2022/06/16 05:25:22;;;;;;;11.18;7.92;;;;;;;14.83;76.97;100580.65;1674423;85;25894;-70
2022/06/16 05:27:48;;;;;;;12.10;7.37;;;;;;;15.01;76.89;100584.06;1674562;85;25662;-70
2022/06/16 05:30:15;;;;;;;10.10;7.10;;;;;;;15.18;76.13;100585.28;1674506;85;26152;-69
2022/06/16 05:32:42;;;;;;;9.80;6.67;;;;;;;15.34;75.47;100584.13;1674547;85;25612;-70
2022/06/16 05:35:11;;;;;;;10.82;6.53;;;;;;;15.47;74.77;100589.05;1674509;85;27509;-70
2022/06/16 05:37:39;;;;;;;8.60;6.92;;;;;;;15.63;74.53;100588.67;1674660;85;25720;-68
2022/06/16 05:40:06;;;;;;;11.43;6.92;;;;;;;15.79;74.65;100587.49;1674479;85;25646;-69
2022/06/16 05:42:33;;;;;;;8.00;6.78;;;;;;;15.96;74.18;100593.33;1674467;85;25494;-69
2022/06/16 05:44:59;;;;;;;8.88;6.20;;;;;;;16.14;74.01;100580.84;1673196;85;25502;-70
2022/06/16 05:47:25;;;;;;;8.60;6.28;;;;;;;16.32;73.08;100582.23;1671825;85;28154;-69
2022/06/16 05:49:51;;;;;;;9.53;6.15;;;;;;;16.50;72.45;100583.36;1671733;85;25618;-70
2022/06/16 05:52:21;;;;;;;8.03;5.70;;;;;;;16.64;71.74;100585.19;1671801;85;25404;-70
2022/06/16 05:54:48;;;;;;;10.10;6.03;;;;;;;16.80;71.25;100581.17;1671904;85;25500;-69
2022/06/16 05:57:14;;;;;;;9.63;4.87;;;;;;;16.97;71.48;100589.16;1671996;85;25193;-70
2022/06/16 05:59:41;;;;;;;7.40;5.55;;;;;;;17.16;70.68;100583.63;1671979;85;27533;-69
2022/06/16 06:02:17;;;;;;;6.37;4.70;;;;;;;17.36;70.01;100587.32;1671948;85;25660;-69
2022/06/16 06:04:43;;;;;;;7.67;5.08;;;;;;;17.51;68.86;100592.63;1671987;85;25418;-69
2022/06/16 06:07:10;;;;;;;6.45;5.05;;;;;;;17.69;68.74;100584.33;1671986;85;25609;-69
2022/06/16 06:18:08;;;;;;;6.45;3.87;;;;;;;18.41;65.94;100572.46;1672146;85;25498;-68
2022/06/16 06:20:34;;;;;;;7.33;4.25;;;;;;;18.59;64.19;100574.27;1671933;85;26188;-69
2022/06/16 06:23:00;;;;;;;6.08;4.17;;;;;;;18.75;64.21;100567.36;1671996;85;25466;-69
2022/06/16 06:25:26;;;;;;;5.60;4.30;;;;;;;18.95;63.54;100563.30;1672085;85;27557;-69
2022/06/16 06:27:52;;;;;;;7.35;3.95;;;;;;;19.18;62.93;100571.03;1671918;85;25799;-69
2022/06/16 06:30:29;;;;;;;6.03;3.77;;;;;;;19.39;62.47;100566.57;1672009;85;25564;-69
2022/06/16 06:33:00;;;;;;;5.35;3.70;;;;;;;19.62;61.27;100575.42;1671953;85;26248;-70
2022/06/16 06:35:26;;;;;;;4.65;3.20;;;;;;;19.81;61.21;100565.00;1672055;85;25664;-70
2022/06/16 06:37:53;;;;;;;5.50;3.40;;;;;;;19.98;60.83;100576.67;1671997;85;27544;-69
2022/06/16 06:40:35;;;;;;;6.40;3.65;;;;;;;20.10;58.89;100568.24;1671880;85;25807;-69
2022/06/16 06:43:06;;;;;;;5.45;3.50;;;;;;;20.17;58.28;100564.23;1671990;85;25495;-69
2022/06/16 06:45:34;;;;;;;4.87;3.30;;;;;;;20.24;58.50;100567.09;1671547;85;25480;-70
2022/06/16 06:48:01;;;;;;;7.40;3.67;;;;;;;20.29;57.84;100562.66;1671705;85;25525;-70
2022/06/16 06:50:35;;;;;;;4.30;3.12;;;;;;;20.31;57.70;100554.86;1671961;85;27650;-71
2022/06/16 06:53:01;;;;;;;7.05;3.00;;;;;;;20.43;57.77;100553.05;1671962;85;25471;-69
2022/06/16 06:55:28;;;;;;;4.33;2.75;;;;;;;20.51;56.25;100555.53;1670641;84;25822;-69
2022/06/16 06:57:56;;;;;;;4.67;2.65;;;;;;;20.65;56.42;100558.31;1647125;86;25799;-69
2022/06/16 07:00:26;;;;;;;4.08;2.87;;;;;;;20.71;54.68;100547.21;1646758;86;25458;-70
2022/06/16 07:02:52;;;;;;;4.83;3.40;;;;;;;20.73;54.26;100539.97;1678016;85;27539;-70
2022/06/16 07:05:18;;;;;;;12.82;6.35;;;;;;;20.81;54.86;100536.16;1619036;88;26453;-70
2022/06/16 07:07:46;;;;;;;6.15;3.33;;;;;;;20.90;53.27;100540.78;1673172;85;26300;-70
2022/06/16 07:10:15;;;;;;;4.33;3.12;;;;;;;20.96;53.27;100537.11;1673148;85;25753;-70
2022/06/16 07:12:42;;;;;;;3.83;3.05;;;;;;;21.03;53.91;100534.47;1673298;85;25649;-70
2022/06/16 07:15:10;;;;;;;7.22;3.30;;;;;;;21.24;53.88;100536.67;1673063;85;27676;-68
2022/06/16 07:17:36;;;;;;;7.12;3.12;;;;;;;21.44;53.27;100538.08;1673093;85;25493;-69
2022/06/16 07:20:03;;;;;;;4.30;3.00;;;;;;;21.54;53.17;100528.95;1671403;85;25676;-69
2022/06/16 07:22:29;;;;;;;3.58;2.60;;;;;;;21.64;52.56;100533.80;1672953;85;25708;-69
2022/06/16 07:24:55;;;;;;;3.55;2.60;;;;;;;21.70;51.66;100532.26;1680857;84;25387;-70
2022/06/16 07:27:22;;;;;;;5.10;3.25;;;;;;;21.76;52.02;100531.31;1671814;84;28372;-70
2022/06/16 07:29:49;;;;;;;4.62;2.60;;;;;;;21.90;51.15;100529.30;1669696;85;25696;-70
2022/06/16 07:32:18;;;;;;;7.67;2.80;;;;;;;22.05;51.43;100529.63;1673160;85;25656;-70
2022/06/16 07:34:44;;;;;;;2.67;2.47;;;;;;;22.18;49.93;100532.84;1666770;85;26512;-69
2022/06/16 07:37:10;;;;;;;3.90;2.70;;;;;;;22.27;49.38;100522.30;1654197;85;25473;-70
2022/06/16 07:39:36;;;;;;;5.72;2.83;;;;;;;22.30;49.82;100529.81;1673164;85;27489;-70
2022/06/16 07:42:04;;;;;;;5.03;2.40;;;;;;;22.44;48.54;100520.88;1672301;84;25751;-70
2022/06/16 07:44:30;;;;;;;3.02;2.15;;;;;;;22.53;48.56;100511.66;1647371;85;25813;-70
2022/06/16 07:46:56;;;;;;;2.98;2.15;;;;;;;22.63;45.39;100525.88;1619419;88;25272;-69
2022/06/16 07:49:27;;;;;;;3.45;1.65;;;;;;;22.58;47.40;100518.78;1619261;88;25746;-70
2022/06/16 07:51:57;;;;;;;3.15;2.20;;;;;;;22.67;45.68;100521.97;1619417;88;28470;-69
2022/06/16 07:54:25;;;;;;;4.47;2.60;;;;;;;22.71;46.44;100511.77;1618986;88;25777;-70
2022/06/16 07:56:52;;;;;;;4.05;2.33;;;;;;;22.86;47.53;100507.68;1592447;88;25697;-69
2022/06/16 07:59:18;;;;;;;2.52;2.33;;;;;;;23.09;46.84;100507.41;1619467;88;26367;-70
2022/06/16 08:01:44;;;;;;;5.03;2.60;;;;;;;23.26;45.84;100510.80;1619568;88;25514;-66
2022/06/16 08:04:11;;;;;;;4.72;2.10;;;;;;;23.35;46.38;100506.89;1619511;88;27594;-67
2022/06/16 08:06:39;;;;;;;3.55;2.02;;;;;;;23.45;45.45;100510.25;1619488;88;25421;-64
2022/06/16 08:09:08;;;;;;;1.98;1.55;;;;;;;23.57;44.93;100504.95;1619503;88;25437;-65
2022/06/16 08:14:19;;;;;;;5.95;4.08;;;;;;;23.86;43.76;100512.69;1619574;88;25702;-65
2022/06/16 08:16:46;;;;;;;3.98;2.30;;;;;;;24.10;45.19;100504.78;1619538;88;27561;-64
2022/06/16 08:19:12;;;;;;;4.62;2.30;;;;;;;24.40;44.57;100516.18;1619278;88;27470;-64
2022/06/16 08:21:38;;;;;;;3.22;2.27;;;;;;;24.52;43.06;100512.77;1619513;88;25587;-64
2022/06/16 08:24:06;;;;;;;7.28;3.65;;;;;;;24.60;43.38;100504.12;1619426;88;25719;-64
2022/06/16 08:26:34;;;;;;;2.98;2.20;;;;;;;24.75;42.97;100504.05;1619477;88;25624;-64
2022/06/16 08:29:01;;;;;;;5.63;2.00;;;;;;;25.01;42.36;100519.34;1619700;88;28052;-65
2022/06/16 08:31:27;;;;;;;4.50;1.72;;;;;;;25.10;41.56;100506.48;1619439;88;25447;-65
2022/06/16 08:33:55;;;;;;;2.83;1.80;;;;;;;25.14;39.89;100511.38;1648120;87;25434;-64
2022/06/16 08:36:22;;;;;;;2.50;1.77;;;;;;;25.05;41.29;100506.30;1619425;88;25664;-64
2022/06/16 08:38:48;;;;;;;3.55;2.00;;;;;;;25.17;41.36;100509.98;1678136;85;25418;-64
2022/06/16 08:41:32;;;;;;;5.00;2.05;;;;;;;25.18;41.53;100503.84;1678084;85;27488;-64
2022/06/16 08:44:19;;;;;;;5.17;1.62;;;;;;;25.49;40.91;100509.03;1671281;85;25785;-64
2022/06/16 08:47:05;;;;;;;4.20;2.45;;;;;;;25.83;40.38;100511.73;1670631;84;25641;-64
2022/06/16 08:50:06;;;;;;;4.85;2.20;;;;;;;26.05;39.53;100517.33;1668217;85;26220;-65
2022/06/16 08:53:06;;;;;;;5.83;1.92;;;;;;;25.99;39.97;100506.48;1668106;85;26421;-65
2022/06/16 08:55:56;;;;;;;5.20;1.95;;;;;;;25.80;38.43;100513.34;1668410;86;27523;-65
2022/06/16 08:58:30;;;;;;;3.45;1.90;;;;;;;25.50;38.59;100510.59;1668200;86;25633;-65
2022/06/16 09:01:07;;;;;;;4.42;1.65;;;;;;;25.22;38.46;100502.46;1667839;85;25455;-63
2022/06/16 09:03:55;;;;;;;4.67;2.15;;;;;;;24.98;38.65;100500.80;1667759;86;26267;-65
2022/06/16 09:06:35;;;;;;;3.70;2.10;;;;;;;24.65;38.32;100501.52;1667132;86;25731;-65
2022/06/16 09:12:52;;;;;;;3.05;1.65;;;;;;;24.19;39.41;100499.62;1667885;85;25874;-64
2022/06/16 09:15:36;;;;;;;2.37;1.72;;;;;;;24.06;39.69;100499.27;1647403;87;25647;-66
2022/06/16 09:18:32;;;;;;;5.25;2.10;;;;;;;24.15;39.85;100492.73;1639095;86;25792;-63
2022/06/16 09:21:36;;;;;;;2.05;1.52;;;;;;;24.22;40.29;100489.95;1667653;86;25744;-66
2022/06/16 09:24:36;;;;;;;4.15;2.08;;;;;;;24.35;40.41;100486.78;1667751;86;27640;-65
2022/06/16 09:27:34;;;;;;;2.85;2.05;;;;;;;24.27;39.78;100492.13;1667218;86;25715;-66
2022/06/16 09:30:09;;;;;;;2.70;1.80;;;;;;;24.58;40.76;100484.95;1670240;85;25758;-64
2022/06/16 09:32:40;;;;;;;3.33;1.92;;;;;;;25.18;40.88;100478.93;1670008;85;26245;-64
2022/06/16 09:35:31;;;;;;;2.72;1.90;;;;;;;25.49;40.17;100479.18;1670616;85;25445;-65
2022/06/16 09:38:06;;;;;;;4.00;2.00;;;;;;;25.95;40.17;100469.72;1670518;85;28271;-66
2022/06/16 09:40:37;;;;;;;3.00;1.80;;;;;;;26.51;39.07;100476.47;1669265;84;25468;-66
2022/06/16 09:43:27;;;;;;;4.20;1.85;;;;;;;26.88;38.42;100469.27;1669201;85;25731;-65
2022/06/16 09:46:22;;;;;;;2.45;1.70;;;;;;;27.19;38.37;100463.11;1665524;85;25973;-65
2022/06/16 09:49:21;;;;;;;4.35;1.67;;;;;;;27.74;36.61;100470.02;1669112;85;25727;-66
2022/06/16 09:51:53;;;;;;;5.30;1.62;;;;;;;28.03;36.58;100461.98;1668920;85;27408;-66
2022/06/16 09:54:43;;;;;;;10.95;2.35;;;;;;;28.48;36.51;100457.33;1682203;84;26183;-66
2022/06/16 09:57:17;;;;;;;1.85;1.15;;;;;;;29.06;35.66;100470.86;1695879;84;25755;-66
2022/06/16 09:59:57;;;;;;;3.30;1.20;;;;;;;29.41;34.24;100476.84;1695044;84;25675;-67
2022/06/16 10:02:34;;;;;;;5.15;1.25;;;;;;;29.62;32.99;100467.16;1671781;84;25699;-65
2022/06/16 10:05:02;;;;;;;3.50;1.20;;;;;;;29.54;31.85;100471.95;1695444;84;27338;-66
2022/06/16 10:07:41;;;;;;;3.08;1.00;;;;;;;29.30;32.04;100469.33;1695668;84;25670;-65
2022/06/16 10:10:16;;;;;;;3.70;1.50;;;;;;;29.05;29.89;100473.46;1695853;84;25509;-65
2022/06/16 10:13:00;;;;;;;4.53;1.90;;;;;;;28.76;31.59;100463.56;1695217;84;25647;-65
2022/06/16 10:15:48;;;;;;;2.45;1.10;;;;;;;28.65;31.59;100470.73;1695892;84;25587;-64
2022/06/16 10:18:17;;;;;;;1.45;1.00;;;;;;;28.60;31.58;100469.06;1695987;84;27566;-64
2022/06/16 10:20:45;;;;;;;2.95;1.80;;;;;;;28.62;31.62;100464.66;1695693;84;25678;-64
2022/06/16 10:23:21;;;;;;;2.85;1.70;;;;;;;28.73;31.78;100460.86;1695692;84;25552;-66
2022/06/16 10:25:54;;;;;;;3.85;1.40;;;;;;;28.91;31.63;100455.66;1695808;84;25785;-65
2022/06/16 10:28:44;;;;;;;4.05;1.60;;;;;;;29.02;31.65;100456.84;1703604;83;25746;-67
2022/06/16 10:31:18;;;;;;;1.45;1.17;;;;;;;29.29;32.21;100448.91;1724346;83;27491;-67
2022/06/16 10:33:56;;;;;;;2.00;1.10;;;;;;;29.69;31.68;100445.30;1697603;83;25664;-66
2022/06/16 10:36:25;;;;;;;4.12;1.30;;;;;;;29.80;30.37;100454.83;1724404;83;25753;-68
2022/06/16 10:39:18;;;;;;;1.52;1.20;;;;;;;29.70;30.72;100455.23;1724165;83;25671;-66
2022/06/16 10:42:00;;;;;;;1.50;1.10;;;;;;;29.65;30.82;100463.34;1724056;83;25766;-67
2022/06/16 10:44:29;;;;;;;4.05;1.30;;;;;;;29.54;30.34;100458.83;1692215;84;27336;-66
2022/06/16 10:47:02;;;;;;;4.85;1.30;;;;;;;29.48;30.43;100462.57;1692192;84;25690;-67
2022/06/16 10:49:36;;;;;;;1.52;1.30;;;;;;;29.66;30.58;100460.13;1668671;84;25775;-66
2022/06/16 10:52:14;;;;;;;2.47;1.17;;;;;;;29.93;30.25;100457.66;1692160;84;27483;-65
2022/06/16 10:55:15;;;;;;;3.37;1.50;;;;;;;30.39;29.89;100457.03;1692248;84;25834;-64
2022/06/16 10:58:01;;;;;;;2.30;1.22;;;;;;;30.79;29.86;100457.30;1669358;85;27582;-64
2022/06/16 11:00:32;;;;;;;2.47;1.70;;;;;;;31.21;29.00;100447.43;1664976;85;25344;-65
2022/06/16 11:03:12;;;;;;;2.10;1.35;;;;;;;31.41;28.96;100446.56;1646536;85;25697;-65
2022/06/16 11:05:57;;;;;;;3.83;2.20;;;;;;;31.49;28.10;100441.53;1669241;85;27590;-65
2022/06/16 11:08:34;;;;;;;2.55;1.27;;;;;;;31.55;28.56;100444.56;1669254;85;25453;-66
2022/06/16 11:11:01;;;;;;;3.00;1.10;;;;;;;31.73;28.18;100441.95;1669353;85;27344;-67
2022/06/16 11:13:35;;;;;;;1.65;1.30;;;;;;;31.94;27.38;100434.04;1669214;85;25706;-68
2022/06/16 11:16:10;;;;;;;3.27;1.40;;;;;;;31.98;27.66;100436.11;1669342;85;25717;-66
2022/06/16 11:18:37;;;;;;;1.65;1.42;;;;;;;31.97;27.35;100430.34;1669368;85;25817;-65
2022/06/16 11:21:15;;;;;;;2.30;1.27;;;;;;;32.16;25.77;100452.27;1628061;87;25790;-64
2022/06/16 11:23:46;;;;;;;1.65;1.37;;;;;;;32.16;25.77;100452.27;1626725;88;27559;-64
2022/06/16 11:26:36;;;;;;;3.87;1.52;;;;;;;31.98;25.99;100429.12;1626038;88;27211;-65
2022/06/16 11:29:15;;;;;;;3.08;1.27;;;;;;;31.99;26.33;100432.06;1628505;87;25775;-66
2022/06/16 11:31:46;;;;;;;2.65;1.20;;;;;;;32.08;26.01;100420.98;1631197;87;26100;-65
2022/06/16 11:34:23;;;;;;;1.47;1.30;;;;;;;32.24;26.96;100429.80;1682504;83;25674;-65
2022/06/16 11:37:19;;;;;;;2.30;1.40;;;;;;;32.47;24.41;100431.35;1727366;83;28014;-66
2022/06/16 11:40:23;;;;;;;2.60;1.62;;;;;;;32.23;24.60;100421.23;1726878;83;25768;-65
2022/06/16 11:43:11;;;;;;;3.42;1.90;;;;;;;31.91;24.04;100420.36;1727505;83;25755;-64
2022/06/16 11:45:55;;;;;;;3.55;1.55;;;;;;;31.42;24.83;100418.80;1724637;83;25796;-66
2022/06/16 11:48:33;;;;;;;4.72;1.77;;;;;;;31.47;25.38;100414.66;1726930;83;25677;-66
2022/06/16 11:51:21;;;;;;;4.67;1.95;;;;;;;31.73;26.30;100403.43;1726512;83;27323;-66
2022/06/16 11:54:29;;;;;;;2.70;1.60;;;;;;;31.78;25.71;100400.05;1726893;83;25789;-67
2022/06/16 11:57:22;;;;;;;2.72;1.30;;;;;;;31.96;26.08;100400.80;1727087;83;25685;-67
2022/06/16 12:00:24;;;;;;;3.33;1.50;;;;;;;31.85;25.26;100395.59;1726843;83;26479;-66
2022/06/16 12:03:02;;;;;;;2.55;1.50;;;;;;;31.76;25.66;100394.14;1726901;83;25749;-69
2022/06/16 12:05:54;;;;;;;3.20;1.90;;;;;;;31.75;25.90;100391.17;1727467;83;27981;-70
2022/06/16 12:08:59;;;;;;;3.58;1.87;;;;;;;31.80;25.38;100393.39;1727143;83;26073;-68
2022/06/16 12:11:52;;;;;;;2.58;1.30;;;;;;;31.65;24.95;100392.50;1727337;83;25749;-69
2022/06/16 12:14:39;;;;;;;2.00;1.52;;;;;;;31.56;25.46;100395.20;1726970;83;25583;-69
2022/06/16 12:17:29;;;;;;;1.75;1.37;;;;;;;31.61;25.46;100387.63;1727505;83;25563;-69